createdAt,value
2023-03-18T00:00:10.266Z,9.91
2023-03-18T00:05:02.140Z,9.91
2023-03-18T00:09:53.782Z,9.86
2023-03-18T00:14:45.377Z,9.86
2023-03-18T00:19:37.151Z,9.85
2023-03-18T00:24:29.180Z,9.85
2023-03-18T00:29:20.821Z,9.86
2023-03-18T00:34:14.870Z,9.89
2023-03-18T00:39:07.558Z,9.91
2023-03-18T00:43:59.696Z,9.90
2023-03-18T00:48:54.124Z,9.89
2023-03-18T00:53:48.848Z,9.86
2023-03-18T00:58:41.127Z,9.84
2023-03-18T01:03:34.071Z,9.83
2023-03-18T01:08:27.189Z,9.81
2023-03-18T01:13:19.318Z,9.81
2023-03-18T01:18:11.483Z,9.83
2023-03-18T01:23:03.175Z,9.80
2023-03-18T01:27:57.588Z,9.80
2023-03-18T01:32:50.421Z,9.80
2023-03-18T01:37:43.968Z,9.81
2023-03-18T01:42:37.856Z,9.82
2023-03-18T01:47:29.831Z,9.81
2023-03-18T01:52:29.019Z,9.80
2023-03-18T01:57:22.432Z,9.77
2023-03-18T02:02:23.243Z,9.78
2023-03-18T02:07:29.902Z,9.75
2023-03-18T02:12:26.995Z,9.72
2023-03-18T02:17:24.366Z,9.70
2023-03-18T02:22:24.297Z,9.65
2023-03-18T02:27:35.563Z,9.61
2023-03-18T02:32:30.583Z,9.55
2023-03-18T02:37:22.733Z,9.47
2023-03-18T02:42:15.625Z,9.41
2023-03-18T02:47:12.375Z,9.34
2023-03-18T02:52:05.636Z,9.29
2023-03-18T02:56:59.598Z,9.23
2023-03-18T03:01:53.241Z,9.19
2023-03-18T03:06:45.650Z,9.15
2023-03-18T03:11:37.788Z,9.10
2023-03-18T03:16:29.761Z,9.07
2023-03-18T03:21:22.431Z,9.05
2023-03-18T03:26:16.275Z,9.00
2023-03-18T03:31:09.125Z,9.00
2023-03-18T03:36:00.968Z,8.96
2023-03-18T03:40:54.014Z,8.97
2023-03-18T03:45:46.123Z,8.95
2023-03-18T03:50:39.870Z,8.94
2023-03-18T03:55:32.117Z,8.88
2023-03-18T04:00:24.272Z,8.87
2023-03-18T04:05:20.429Z,8.85
2023-03-18T04:10:16.654Z,8.84
2023-03-18T04:15:11.891Z,8.86
2023-03-18T04:20:05.497Z,8.89
2023-03-18T04:24:59.500Z,8.93
2023-03-18T04:29:53.521Z,8.97
2023-03-18T04:34:45.206Z,9.00
2023-03-18T04:39:37.021Z,9.04
2023-03-18T04:44:30.570Z,9.05
2023-03-18T04:49:22.238Z,9.07
2023-03-18T04:54:13.874Z,9.08
2023-03-18T04:59:06.259Z,9.06
2023-03-18T05:03:58.386Z,9.07
2023-03-18T05:08:51.349Z,9.08
2023-03-18T05:13:43.020Z,9.10
2023-03-18T05:18:34.956Z,9.14
2023-03-18T05:23:26.567Z,9.12
2023-03-18T05:28:18.395Z,9.13
2023-03-18T05:33:10.190Z,9.08
2023-03-18T05:38:02.034Z,9.05
2023-03-18T05:42:56.511Z,9.05
2023-03-18T05:47:48.290Z,9.02
2023-03-18T05:52:40.053Z,9.03
2023-03-18T05:57:32.767Z,9.03
2023-03-18T06:02:27.125Z,9.02
2023-03-18T06:07:18.734Z,9.03
2023-03-18T06:12:10.539Z,9.04
2023-03-18T06:17:02.297Z,9.04
2023-03-18T06:21:54.003Z,9.05
2023-03-18T06:26:45.757Z,9.00
2023-03-18T06:31:37.823Z,9.03
2023-03-18T06:36:30.841Z,9.03
2023-03-18T06:41:22.477Z,9.05
2023-03-18T06:46:14.885Z,9.08
2023-03-18T06:51:07.910Z,9.10
2023-03-18T06:56:00.421Z,9.12
2023-03-18T07:00:53.420Z,9.15
2023-03-18T07:05:45.492Z,9.17
2023-03-18T07:10:37.144Z,9.20
2023-03-18T07:15:28.877Z,9.24
2023-03-18T07:20:22.474Z,9.26
2023-03-18T07:25:14.704Z,9.27
2023-03-18T07:30:09.661Z,9.35
2023-03-18T07:35:03.037Z,9.37
2023-03-18T07:39:54.633Z,9.43
2023-03-18T07:44:46.314Z,9.47
2023-03-18T07:49:37.884Z,9.48
2023-03-18T07:54:29.503Z,9.56
2023-03-18T07:59:21.214Z,9.64
2023-03-18T08:04:12.913Z,9.70
2023-03-18T08:09:05.659Z,9.76
2023-03-18T08:13:57.238Z,9.90
2023-03-18T08:18:48.850Z,10.15
2023-03-18T08:23:41.434Z,10.43
2023-03-18T08:28:33.142Z,10.58
2023-03-18T08:33:27.175Z,10.62
2023-03-18T08:38:19.407Z,10.71
2023-03-18T08:43:11.325Z,10.97
2023-03-18T08:48:03.028Z,11.05
2023-03-18T08:52:59.992Z,11.06
2023-03-18T08:57:51.731Z,11.29
2023-03-18T09:02:43.359Z,11.55
2023-03-18T09:07:35.167Z,11.80
2023-03-18T09:12:26.793Z,12.05
2023-03-18T09:17:18.955Z,12.49
2023-03-18T09:22:11.433Z,12.90
2023-03-18T09:27:03.202Z,12.93
2023-03-18T09:31:55.761Z,12.80
2023-03-18T09:36:51.312Z,12.71
2023-03-18T09:42:01.702Z,12.79
2023-03-18T09:47:06.016Z,13.05
2023-03-18T09:52:07.318Z,13.13
2023-03-18T09:57:00.005Z,13.20
2023-03-18T10:01:56.396Z,13.34
2023-03-18T10:06:50.844Z,13.81
2023-03-18T10:11:42.860Z,14.71
2023-03-18T10:16:48.918Z,15.29
2023-03-18T10:21:48.080Z,15.37
2023-03-18T10:26:47.103Z,15.14
2023-03-18T10:31:47.859Z,15.07
2023-03-18T10:36:45.534Z,15.29
2023-03-18T10:41:38.644Z,15.66
2023-03-18T10:46:31.847Z,15.64
2023-03-18T10:51:34.639Z,15.67
2023-03-18T10:56:26.353Z,15.79
2023-03-18T11:01:22.965Z,15.82
2023-03-18T11:06:47.386Z,16.06
2023-03-18T11:12:05.433Z,16.51
2023-03-18T11:17:01.552Z,16.81
2023-03-18T11:22:25.959Z,17.10
2023-03-18T11:27:17.576Z,17.05
2023-03-18T11:32:23.676Z,17.24
2023-03-18T11:37:15.318Z,17.58
2023-03-18T11:42:22.224Z,18.23
2023-03-18T11:47:22.331Z,18.78
2023-03-18T11:52:32.738Z,18.52
2023-03-18T11:57:52.336Z,18.16
2023-03-18T12:03:15.536Z,17.88
2023-03-18T12:08:10.169Z,17.59
2023-03-18T12:13:26.278Z,17.48
2023-03-18T12:18:26.031Z,17.46
2023-03-18T12:23:36.029Z,17.32
2023-03-18T12:28:42.932Z,17.18
2023-03-18T12:33:49.627Z,17.43
2023-03-18T12:39:05.864Z,17.74
2023-03-18T12:44:06.904Z,17.78
2023-03-18T12:49:39.097Z,17.68
2023-03-18T12:54:36.784Z,17.29
2023-03-18T12:59:42.481Z,17.17
2023-03-18T13:04:37.591Z,17.36
2023-03-18T13:09:45.954Z,17.43
2023-03-18T13:14:48.953Z,17.35
2023-03-18T13:19:42.117Z,17.37
2023-03-18T13:24:54.148Z,17.42
2023-03-18T13:29:52.233Z,17.48
2023-03-18T13:35:02.152Z,17.31
2023-03-18T13:40:12.952Z,17.12
2023-03-18T13:45:16.873Z,16.93
2023-03-18T13:50:20.765Z,16.71
2023-03-18T13:55:44.588Z,16.21
2023-03-18T14:01:01.384Z,15.86
2023-03-18T14:06:15.993Z,15.82
2023-03-18T14:11:17.054Z,15.91
2023-03-18T14:16:14.995Z,15.91
2023-03-18T14:21:23.828Z,16.08
2023-03-18T14:26:21.870Z,16.30
2023-03-18T14:31:40.157Z,16.36
2023-03-18T14:36:53.404Z,16.20
2023-03-18T14:41:48.762Z,16.05
2023-03-18T14:46:43.433Z,15.92
2023-03-18T14:51:35.566Z,15.52
2023-03-18T14:56:36.117Z,14.97
2023-03-18T15:01:40.146Z,14.42
2023-03-18T15:06:32.595Z,14.05
2023-03-18T15:11:24.781Z,13.94
2023-03-18T15:16:19.943Z,13.89
2023-03-18T15:21:17.804Z,13.82
2023-03-18T15:26:21.691Z,14.03
2023-03-18T15:31:33.062Z,14.19
2023-03-18T15:36:25.268Z,14.26
2023-03-18T15:41:21.625Z,14.28
2023-03-18T15:46:19.034Z,14.17
2023-03-18T15:51:48.181Z,14.16
2023-03-18T15:56:47.724Z,14.23
2023-03-18T16:01:40.335Z,14.25
2023-03-18T16:06:34.552Z,14.21
2023-03-18T16:11:26.350Z,14.12
2023-03-18T16:16:25.212Z,14.04
2023-03-18T16:21:17.192Z,13.94
2023-03-18T16:26:16.448Z,13.93
2023-03-18T16:31:08.400Z,13.92
2023-03-18T16:36:01.756Z,13.81
2023-03-18T16:40:54.906Z,13.70
2023-03-18T16:45:47.593Z,13.61
2023-03-18T16:50:41.439Z,13.49
2023-03-18T16:55:34.560Z,13.38
2023-03-18T17:00:31.846Z,13.32
2023-03-18T17:05:24.190Z,13.18
2023-03-18T17:10:19.020Z,13.08
2023-03-18T17:15:12.687Z,13.05
2023-03-18T17:20:15.539Z,13.03
2023-03-18T17:25:07.509Z,12.93
2023-03-18T17:29:59.288Z,12.84
2023-03-18T17:34:52.403Z,12.77
2023-03-18T17:39:44.841Z,12.67
2023-03-18T17:44:36.811Z,12.62
2023-03-18T17:49:28.585Z,12.58
2023-03-18T17:54:25.431Z,12.52
2023-03-18T17:59:19.554Z,12.48
2023-03-18T18:04:16.736Z,12.39
2023-03-18T18:09:13.317Z,12.34
2023-03-18T18:14:18.511Z,12.29
2023-03-18T18:19:14.541Z,12.23
2023-03-18T18:24:24.059Z,12.15
2023-03-18T18:29:20.568Z,12.10
2023-03-18T18:34:12.433Z,12.08
2023-03-18T18:39:05.324Z,12.05
2023-03-18T18:43:57.177Z,12.02
2023-03-18T18:48:49.313Z,11.97
2023-03-18T18:53:43.354Z,11.96
2023-03-18T18:58:36.613Z,11.94
2023-03-18T19:03:31.941Z,11.94
2023-03-18T19:08:25.071Z,11.92
2023-03-18T19:13:17.021Z,11.53
2023-03-18T19:18:21.377Z,11.02
2023-03-18T19:23:23.453Z,10.62
2023-03-18T19:28:20.970Z,10.31
2023-03-18T19:33:22.197Z,10.10
2023-03-18T19:38:17.871Z,9.84
2023-03-18T19:43:21.573Z,9.61
2023-03-18T19:48:19.885Z,9.43
2023-03-18T19:53:16.093Z,9.24
2023-03-18T19:58:24.181Z,9.12
2023-03-18T20:03:18.131Z,8.92
2023-03-18T20:08:10.131Z,8.74
2023-03-18T20:13:01.930Z,8.65
2023-03-18T20:17:54.504Z,8.57
2023-03-18T20:22:51.924Z,8.50
2023-03-18T20:27:43.613Z,8.40
2023-03-18T20:32:35.266Z,8.34
2023-03-18T20:37:34.398Z,8.32
2023-03-18T20:42:26.248Z,8.29
2023-03-18T20:47:17.956Z,8.27
2023-03-18T20:52:23.366Z,8.23
2023-03-18T20:57:15.293Z,8.23
2023-03-18T21:02:29.995Z,8.22
2023-03-18T21:07:22.152Z,8.20
2023-03-18T21:12:18.630Z,8.17
2023-03-18T21:17:22.427Z,8.18
2023-03-18T21:22:21.516Z,8.13
2023-03-18T21:27:31.502Z,8.12
2023-03-18T21:32:27.371Z,8.15
2023-03-18T21:37:22.283Z,8.13
2023-03-18T21:42:23.126Z,8.14
2023-03-18T21:47:17.884Z,8.17
2023-03-18T21:52:29.288Z,8.15
2023-03-18T21:57:22.524Z,8.04
2023-03-18T22:02:31.592Z,8.02
2023-03-18T22:07:23.887Z,7.97
2023-03-18T22:12:24.539Z,8.00
2023-03-18T22:17:37.217Z,8.06
2023-03-18T22:22:39.261Z,8.09
2023-03-18T22:27:31.603Z,8.07
2023-03-18T22:32:26.225Z,8.04
2023-03-18T22:37:23.076Z,7.96
2023-03-18T22:42:18.167Z,7.89
2023-03-18T22:47:15.216Z,7.83
2023-03-18T22:52:11.895Z,7.81
2023-03-18T22:57:03.692Z,7.76
2023-03-18T23:01:55.299Z,7.69
2023-03-18T23:06:46.984Z,7.65
2023-03-18T23:11:38.891Z,7.61
2023-03-18T23:16:30.535Z,7.53
2023-03-18T23:21:24.756Z,7.48
2023-03-18T23:26:16.789Z,7.50
2023-03-18T23:31:09.443Z,7.46
2023-03-18T23:36:01.492Z,7.44
2023-03-18T23:40:53.156Z,7.36
2023-03-18T23:45:45.025Z,7.30
2023-03-18T23:50:36.714Z,7.28
2023-03-18T23:55:34.939Z,7.21
